TimeCST,TemperatureF,Dew PointF,Humidity,Sea Level PressureIn,VisibilityMPH,Wind Direction,Wind SpeedMPH,Gust SpeedMPH,PrecipitationIn,Events,Conditions,WindDirDegrees,DateUTC
12:03 AM,44.6,44.6,100,29.79,6.0,Calm,Calm,-,N/A,,Overcast,0,2013-02-13 06:03:00
12:30 AM,44.6,44.6,100,29.78,5.0,Calm,Calm,-,N/A,,Overcast,0,2013-02-13 06:30:00
12:35 AM,44.6,44.6,100,29.78,4.0,Calm,Calm,-,N/A,,Overcast,0,2013-02-13 06:35:00
12:45 AM,44.6,44.6,100,29.79,4.0,Calm,Calm,-,N/A,,Overcast,0,2013-02-13 06:45:00
12:47 AM,44.6,44.6,100,29.79,4.0,Calm,Calm,-,N/A,,Overcast,0,2013-02-13 06:47:00
12:52 AM,44.6,44.6,100,29.79,3.0,Calm,Calm,-,N/A,,Overcast,0,2013-02-13 06:52:00
12:55 AM,44.6,44.6,100,29.79,3.0,Calm,Calm,-,N/A,,Overcast,0,2013-02-13 06:55:00
12:58 AM,44.1,44.1,100,29.80,3.0,Calm,Calm,-,0.01,,Overcast,0,2013-02-13 06:58:00
1:03 AM,44.6,44.6,100,29.79,4.0,Calm,Calm,-,N/A,,Overcast,0,2013-02-13 07:03:00
1:08 AM,44.6,44.6,100,29.78,3.0,Calm,Calm,-,N/A,,Overcast,0,2013-02-13 07:08:00
1:13 AM,44.6,44.6,100,29.78,3.0,Calm,Calm,-,N/A,,Overcast,0,2013-02-13 07:13:00
1:18 AM,44.6,44.6,100,29.78,4.0,Calm,Calm,-,N/A,,Overcast,0,2013-02-13 07:18:00
1:19 AM,44.6,44.6,100,29.78,4.0,Calm,Calm,-,N/A,,Overcast,0,2013-02-13 07:19:00
1:24 AM,44.6,44.6,100,29.78,4.0,Calm,Calm,-,N/A,,Overcast,0,2013-02-13 07:24:00
1:29 AM,44.6,44.6,100,29.77,4.0,Calm,Calm,-,N/A,,Overcast,0,2013-02-13 07:29:00
1:34 AM,44.6,44.6,100,29.78,4.0,Calm,Calm,-,N/A,,Overcast,0,2013-02-13 07:34:00
1:39 AM,44.6,44.6,100,29.77,5.0,Calm,Calm,-,N/A,,Overcast,0,2013-02-13 07:39:00
1:44 AM,44.6,44.6,100,29.78,4.0,Calm,Calm,-,N/A,,Overcast,0,2013-02-13 07:44:00
1:49 AM,44.6,44.6,100,29.76,4.0,Calm,Calm,-,N/A,,Overcast,0,2013-02-13 07:49:00
1:54 AM,44.6,44.6,100,29.76,5.0,Calm,Calm,-,N/A,,Overcast,0,2013-02-13 07:54:00
1:58 AM,44.4,44.4,100,29.77,5.0,Calm,Calm,-,0.00,,Overcast,0,2013-02-13 07:58:00
2:48 AM,44.6,44.6,100,29.76,9.0,SW,5.8,-,N/A,,Overcast,230,2013-02-13 08:48:00
2:58 AM,45.0,45.0,100,29.78,10.0,SW,5.8,-,N/A,,Overcast,230,2013-02-13 08:58:00
3:58 AM,45.7,45.5,99,29.78,10.0,West,10.4,-,N/A,,Overcast,260,2013-02-13 09:58:00
4:13 AM,46.4,46.4,100,29.79,10.0,West,12.7,-,N/A,,Overcast,270,2013-02-13 10:13:00
4:23 AM,46.4,46.4,100,29.80,10.0,West,12.7,-,N/A,,Overcast,270,2013-02-13 10:23:00
4:38 AM,46.4,46.4,100,29.81,10.0,West,9.2,-,N/A,,Overcast,280,2013-02-13 10:38:00
4:53 AM,46.4,46.4,100,29.82,10.0,West,13.8,-,N/A,,Overcast,270,2013-02-13 10:53:00
4:58 AM,45.9,45.7,99,29.83,10.0,West,10.4,-,N/A,,Overcast,280,2013-02-13 10:58:00
5:39 AM,46.4,44.6,93,29.83,10.0,West,9.2,-,N/A,,Overcast,270,2013-02-13 11:39:00
5:49 AM,46.4,44.6,93,29.84,10.0,West,9.2,17.3,N/A,,Overcast,280,2013-02-13 11:49:00
5:58 AM,45.7,44.1,94,29.85,10.0,West,11.5,-,N/A,,Overcast,280,2013-02-13 11:58:00
6:05 AM,46.4,44.6,93,29.85,10.0,West,10.4,-,N/A,,Light Drizzle,280,2013-02-13 12:05:00
6:15 AM,46.4,44.6,93,29.85,10.0,West,11.5,-,N/A,,Overcast,280,2013-02-13 12:15:00
6:56 AM,44.6,42.8,93,29.87,10.0,West,10.4,-,N/A,,Overcast,270,2013-02-13 12:56:00
6:58 AM,45.1,43.0,92,29.88,10.0,West,10.4,-,0.00,,Overcast,270,2013-02-13 12:58:00
7:01 AM,44.6,42.8,93,29.87,10.0,West,9.2,-,N/A,,Overcast,260,2013-02-13 13:01:00
7:21 AM,44.6,42.8,93,29.86,10.0,West,9.2,-,N/A,,Mostly Cloudy,260,2013-02-13 13:21:00
7:36 AM,44.6,42.8,93,29.88,10.0,West,9.2,-,N/A,,Mostly Cloudy,260,2013-02-13 13:36:00
7:58 AM,45.0,42.4,91,29.89,10.0,West,9.2,-,0.00,,Overcast,270,2013-02-13 13:58:00
8:38 AM,46.4,42.8,87,29.90,10.0,West,10.4,-,N/A,,Mostly Cloudy,270,2013-02-13 14:38:00
8:43 AM,46.4,42.8,87,29.90,10.0,West,12.7,-,N/A,,Overcast,270,2013-02-13 14:43:00
8:53 AM,46.4,41.0,81,29.90,10.0,West,11.5,-,N/A,,Mostly Cloudy,270,2013-02-13 14:53:00
8:58 AM,46.0,41.4,84,29.91,10.0,West,16.1,19.6,N/A,,Mostly Cloudy,280,2013-02-13 14:58:00
9:28 AM,46.4,41.0,81,29.91,10.0,West,13.8,23.0,N/A,,Overcast,280,2013-02-13 15:28:00
9:38 AM,46.4,41.0,81,29.91,10.0,West,12.7,-,N/A,,Overcast,280,2013-02-13 15:38:00
9:43 AM,46.4,41.0,81,29.92,10.0,WNW,12.7,-,N/A,,Overcast,290,2013-02-13 15:43:00
9:53 AM,46.4,39.2,76,29.93,10.0,WNW,16.1,-,N/A,,Overcast,300,2013-02-13 15:53:00
9:58 AM,46.4,39.7,78,29.95,10.0,WNW,17.3,-,N/A,,Overcast,290,2013-02-13 15:58:00
10:03 AM,46.4,39.2,76,29.93,10.0,WNW,17.3,-,N/A,,Overcast,300,2013-02-13 16:03:00
10:13 AM,46.4,39.2,76,29.93,10.0,WNW,17.3,21.9,N/A,,Overcast,300,2013-02-13 16:13:00
10:48 AM,46.4,39.2,76,29.95,10.0,WNW,15.0,-,N/A,,Overcast,300,2013-02-13 16:48:00
10:53 AM,46.4,39.2,76,29.95,10.0,WNW,18.4,24.2,N/A,,Overcast,300,2013-02-13 16:53:00
10:58 AM,46.4,38.8,75,29.96,10.0,WNW,15.0,24.2,N/A,,Overcast,290,2013-02-13 16:58:00
11:03 AM,46.4,39.2,76,29.95,10.0,WNW,12.7,-,N/A,,Overcast,300,2013-02-13 17:03:00
11:08 AM,46.4,39.2,76,29.95,10.0,WNW,13.8,23.0,N/A,,Overcast,300,2013-02-13 17:08:00
11:23 AM,46.4,39.2,76,29.96,10.0,WNW,17.3,23.0,N/A,,Overcast,290,2013-02-13 17:23:00
11:43 AM,46.4,39.2,76,29.96,10.0,WNW,13.8,-,N/A,,Overcast,290,2013-02-13 17:43:00
11:48 AM,46.4,39.2,76,29.96,10.0,WNW,13.8,-,N/A,,Overcast,290,2013-02-13 17:48:00
11:53 AM,46.4,39.2,76,29.95,10.0,WNW,13.8,-,N/A,,Overcast,290,2013-02-13 17:53:00
11:58 AM,46.2,39.6,78,29.96,10.0,WNW,13.8,-,N/A,,Overcast,290,2013-02-13 17:58:00
12:03 PM,46.4,39.2,76,29.95,10.0,WNW,13.8,-,N/A,,Overcast,300,2013-02-13 18:03:00
12:08 PM,46.4,39.2,76,29.95,10.0,WNW,12.7,-,N/A,,Overcast,290,2013-02-13 18:08:00
12:13 PM,46.4,39.2,76,29.95,10.0,WNW,18.4,-,N/A,,Overcast,290,2013-02-13 18:13:00
12:18 PM,46.4,39.2,76,29.95,10.0,WNW,19.6,24.2,N/A,,Overcast,290,2013-02-13 18:18:00
12:23 PM,44.6,39.2,81,29.96,10.0,WNW,20.7,-,N/A,,Overcast,290,2013-02-13 18:23:00
12:48 PM,46.4,39.2,76,29.95,10.0,WNW,16.1,-,N/A,,Overcast,290,2013-02-13 18:48:00
12:53 PM,46.4,37.4,71,29.95,10.0,WNW,16.1,-,N/A,,Overcast,300,2013-02-13 18:53:00
12:58 PM,45.5,37.9,75,29.96,10.0,WNW,16.1,-,N/A,,Overcast,300,2013-02-13 18:58:00
1:08 PM,46.4,39.2,76,29.95,10.0,WNW,16.1,19.6,N/A,,Overcast,290,2013-02-13 19:08:00
1:13 PM,46.4,39.2,76,29.95,10.0,WNW,11.5,19.6,N/A,,Overcast,290,2013-02-13 19:13:00
1:18 PM,46.4,39.2,76,29.95,10.0,WNW,11.5,19.6,N/A,,Overcast,290,2013-02-13 19:18:00
1:58 PM,45.3,38.7,78,29.97,10.0,WNW,16.1,-,N/A,,Overcast,290,2013-02-13 19:58:00
2:03 PM,44.6,37.4,76,29.96,10.0,WNW,15.0,-,N/A,,Overcast,290,2013-02-13 20:03:00
2:08 PM,44.6,37.4,76,29.97,10.0,WNW,15.0,-,N/A,,Overcast,300,2013-02-13 20:08:00
2:28 PM,44.6,37.4,76,29.97,10.0,NW,11.5,-,N/A,,Overcast,310,2013-02-13 20:28:00
2:33 PM,44.6,37.4,76,29.97,10.0,NW,10.4,-,N/A,,Overcast,310,2013-02-13 20:33:00
2:58 PM,45.1,38.1,76,29.98,10.0,NW,10.4,-,N/A,,Overcast,310,2013-02-13 20:58:00
3:08 PM,44.6,37.4,76,29.98,10.0,NW,11.5,-,N/A,,Overcast,310,2013-02-13 21:08:00
3:23 PM,44.6,37.4,76,29.98,10.0,NW,16.1,23.0,N/A,,Overcast,320,2013-02-13 21:23:00
3:43 PM,44.6,37.4,76,29.99,10.0,NW,12.7,-,N/A,,Overcast,310,2013-02-13 21:43:00
3:48 PM,44.6,37.4,76,29.99,10.0,NW,12.7,-,N/A,,Overcast,310,2013-02-13 21:48:00
3:58 PM,45.1,37.2,74,30.00,10.0,NW,11.5,-,N/A,,Overcast,320,2013-02-13 21:58:00
4:56 PM,44.6,37.4,76,30.00,10.0,NW,5.8,-,N/A,,Overcast,310,2013-02-13 22:56:00
5:25 PM,42.8,37.4,81,30.01,10.0,NW,4.6,-,N/A,,Scattered Clouds,310,2013-02-13 23:25:00
5:55 PM,41.0,37.4,87,30.02,10.0,West,4.6,-,N/A,,Mostly Cloudy,280,2013-02-13 23:55:00
5:58 PM,41.9,37.2,83,30.03,10.0,West,4.6,-,N/A,,Mostly Cloudy,280,2013-02-13 23:58:00
6:23 PM,42.8,37.4,81,30.02,10.0,West,4.6,-,N/A,,Overcast,270,2013-02-14 00:23:00
6:58 PM,42.8,38.1,84,30.04,10.0,West,3.5,-,N/A,,Overcast,270,2013-02-14 00:58:00
7:47 PM,42.8,39.2,87,30.04,10.0,West,5.8,-,N/A,,Overcast,270,2013-02-14 01:47:00
7:58 PM,42.8,38.3,84,30.06,10.0,West,5.8,-,N/A,,Overcast,270,2013-02-14 01:58:00
8:08 PM,42.8,37.4,81,30.05,10.0,West,5.8,-,N/A,,Overcast,270,2013-02-14 02:08:00
8:58 PM,42.6,38.1,84,30.07,10.0,West,4.6,-,N/A,,Overcast,280,2013-02-14 02:58:00
9:58 PM,42.3,37.2,82,30.08,10.0,West,4.6,-,N/A,,Overcast,260,2013-02-14 03:58:00
11:58 PM,41.9,34.9,76,30.09,10.0,NW,5.8,-,N/A,,Overcast,320,2013-02-14 05:58:00